sensor_id;sensor_type;location;lat;lon;timestamp;P1;durP1;ratioP1;P2;durP2;ratioP2
71253;SDS011;59019;47.638;18.966;2023-11-19T00:01:25;12.37;;;6.67;;
71253;SDS011;59019;47.638;18.966;2023-11-19T00:04:06;13.80;;;6.57;;
71253;SDS011;59019;47.638;18.966;2023-11-19T00:06:40;10.43;;;6.13;;
71253;SDS011;59019;47.638;18.966;2023-11-19T00:09:15;10.80;;;5.70;;
71253;SDS011;59019;47.638;18.966;2023-11-19T00:11:57;9.57;;;5.03;;
71253;SDS011;59019;47.638;18.966;2023-11-19T00:14:25;8.95;;;4.93;;
71253;SDS011;59019;47.638;18.966;2023-11-19T00:16:51;8.07;;;5.00;;
71253;SDS011;59019;47.638;18.966;2023-11-19T00:19:25;9.07;;;4.72;;
71253;SDS011;59019;47.638;18.966;2023-11-19T00:21:54;8.70;;;4.80;;
71253;SDS011;59019;47.638;18.966;2023-11-19T00:24:22;10.93;;;5.10;;
71253;SDS011;59019;47.638;18.966;2023-11-19T00:26:48;10.93;;;5.70;;
71253;SDS011;59019;47.638;18.966;2023-11-19T00:29:15;9.70;;;4.90;;
71253;SDS011;59019;47.638;18.966;2023-11-19T00:31:40;9.32;;;4.38;;
71253;SDS011;59019;47.638;18.966;2023-11-19T00:34:06;9.00;;;4.97;;
71253;SDS011;59019;47.638;18.966;2023-11-19T00:36:37;13.05;;;7.70;;
71253;SDS011;59019;47.638;18.966;2023-11-19T00:39:03;12.10;;;7.43;;
71253;SDS011;59019;47.638;18.966;2023-11-19T00:41:28;10.73;;;5.83;;
71253;SDS011;59019;47.638;18.966;2023-11-19T00:43:54;9.30;;;5.73;;
71253;SDS011;59019;47.638;18.966;2023-11-19T00:46:20;9.55;;;5.20;;
71253;SDS011;59019;47.638;18.966;2023-11-19T00:48:58;9.32;;;4.65;;
71253;SDS011;59019;47.638;18.966;2023-11-19T00:51:24;9.10;;;4.88;;
71253;SDS011;59019;47.638;18.966;2023-11-19T00:53:54;10.38;;;4.88;;
71253;SDS011;59019;47.638;18.966;2023-11-19T00:56:23;9.52;;;4.97;;
71253;SDS011;59019;47.638;18.966;2023-11-19T00:58:49;10.37;;;4.93;;
71253;SDS011;59019;47.638;18.966;2023-11-19T01:01:17;8.85;;;4.60;;
71253;SDS011;59019;47.638;18.966;2023-11-19T01:03:45;9.10;;;4.70;;
71253;SDS011;59019;47.638;18.966;2023-11-19T01:06:11;10.02;;;4.80;;
71253;SDS011;59019;47.638;18.966;2023-11-19T01:08:39;9.93;;;5.20;;
71253;SDS011;59019;47.638;18.966;2023-11-19T01:11:07;9.07;;;4.77;;
71253;SDS011;59019;47.638;18.966;2023-11-19T01:13:33;10.33;;;4.90;;
71253;SDS011;59019;47.638;18.966;2023-11-19T01:16:09;9.30;;;5.07;;
71253;SDS011;59019;47.638;18.966;2023-11-19T01:18:34;8.63;;;4.20;;
71253;SDS011;59019;47.638;18.966;2023-11-19T01:21:00;8.67;;;4.83;;
71253;SDS011;59019;47.638;18.966;2023-11-19T01:23:29;10.52;;;5.30;;
71253;SDS011;59019;47.638;18.966;2023-11-19T01:26:00;10.60;;;5.53;;
71253;SDS011;59019;47.638;18.966;2023-11-19T01:28:26;10.27;;;5.60;;
71253;SDS011;59019;47.638;18.966;2023-11-19T01:30:54;11.90;;;7.97;;
71253;SDS011;59019;47.638;18.966;2023-11-19T01:33:20;12.07;;;8.67;;
71253;SDS011;59019;47.638;18.966;2023-11-19T01:35:46;13.25;;;9.40;;
71253;SDS011;59019;47.638;18.966;2023-11-19T01:38:11;11.97;;;8.43;;
71253;SDS011;59019;47.638;18.966;2023-11-19T01:40:37;10.77;;;7.87;;
71253;SDS011;59019;47.638;18.966;2023-11-19T01:43:03;11.27;;;7.60;;
71253;SDS011;59019;47.638;18.966;2023-11-19T01:45:30;12.32;;;8.07;;
71253;SDS011;59019;47.638;18.966;2023-11-19T01:47:56;11.70;;;7.47;;
71253;SDS011;59019;47.638;18.966;2023-11-19T01:50:23;12.87;;;7.90;;
71253;SDS011;59019;47.638;18.966;2023-11-19T01:52:53;11.63;;;8.27;;
71253;SDS011;59019;47.638;18.966;2023-11-19T01:55:20;11.32;;;8.00;;
71253;SDS011;59019;47.638;18.966;2023-11-19T01:57:46;12.27;;;7.60;;
71253;SDS011;59019;47.638;18.966;2023-11-19T02:00:14;11.13;;;7.30;;
71253;SDS011;59019;47.638;18.966;2023-11-19T02:02:41;11.80;;;7.90;;
71253;SDS011;59019;47.638;18.966;2023-11-19T02:05:08;11.40;;;7.55;;
71253;SDS011;59019;47.638;18.966;2023-11-19T02:07:35;12.40;;;7.07;;
71253;SDS011;59019;47.638;18.966;2023-11-19T02:10:01;13.70;;;9.87;;
71253;SDS011;59019;47.638;18.966;2023-11-19T02:12:28;13.23;;;8.88;;
71253;SDS011;59019;47.638;18.966;2023-11-19T02:14:54;12.47;;;9.13;;
71253;SDS011;59019;47.638;18.966;2023-11-19T02:17:29;14.25;;;9.13;;
71253;SDS011;59019;47.638;18.966;2023-11-19T02:20:05;13.20;;;10.48;;
71253;SDS011;59019;47.638;18.966;2023-11-19T02:22:36;15.50;;;12.07;;
71253;SDS011;59019;47.638;18.966;2023-11-19T02:25:23;15.50;;;12.03;;
71253;SDS011;59019;47.638;18.966;2023-11-19T02:28:14;16.13;;;11.37;;
71253;SDS011;59019;47.638;18.966;2023-11-19T02:31:02;14.25;;;12.00;;
71253;SDS011;59019;47.638;18.966;2023-11-19T02:33:50;12.53;;;10.47;;
71253;SDS011;59019;47.638;18.966;2023-11-19T02:36:36;29.25;;;17.85;;
71253;SDS011;59019;47.638;18.966;2023-11-19T02:39:21;17.38;;;12.48;;
71253;SDS011;59019;47.638;18.966;2023-11-19T02:42:07;16.10;;;11.77;;
71253;SDS011;59019;47.638;18.966;2023-11-19T02:44:53;14.75;;;11.27;;
71253;SDS011;59019;47.638;18.966;2023-11-19T02:47:42;13.65;;;11.32;;
71253;SDS011;59019;47.638;18.966;2023-11-19T02:50:29;12.40;;;10.80;;
71253;SDS011;59019;47.638;18.966;2023-11-19T02:53:16;12.95;;;10.68;;
71253;SDS011;59019;47.638;18.966;2023-11-19T02:56:02;12.98;;;11.15;;
71253;SDS011;59019;47.638;18.966;2023-11-19T02:58:57;15.15;;;11.75;;
71253;SDS011;59019;47.638;18.966;2023-11-19T03:01:42;14.40;;;11.38;;
71253;SDS011;59019;47.638;18.966;2023-11-19T03:04:34;12.02;;;9.82;;
71253;SDS011;59019;47.638;18.966;2023-11-19T03:07:19;11.38;;;9.85;;
71253;SDS011;59019;47.638;18.966;2023-11-19T03:10:05;12.88;;;10.90;;
71253;SDS011;59019;47.638;18.966;2023-11-19T03:12:52;12.73;;;10.15;;
71253;SDS011;59019;47.638;18.966;2023-11-19T03:15:44;11.50;;;10.30;;
71253;SDS011;59019;47.638;18.966;2023-11-19T03:18:39;11.70;;;10.20;;
71253;SDS011;59019;47.638;18.966;2023-11-19T03:21:29;12.10;;;10.43;;
71253;SDS011;59019;47.638;18.966;2023-11-19T03:24:16;11.70;;;10.50;;
71253;SDS011;59019;47.638;18.966;2023-11-19T03:27:02;12.10;;;10.30;;
71253;SDS011;59019;47.638;18.966;2023-11-19T03:29:49;12.57;;;10.30;;
71253;SDS011;59019;47.638;18.966;2023-11-19T03:32:29;12.68;;;11.18;;
71253;SDS011;59019;47.638;18.966;2023-11-19T03:34:54;12.95;;;11.18;;
71253;SDS011;59019;47.638;18.966;2023-11-19T03:37:20;14.35;;;12.02;;
71253;SDS011;59019;47.638;18.966;2023-11-19T03:39:46;14.20;;;11.83;;
71253;SDS011;59019;47.638;18.966;2023-11-19T03:42:11;13.80;;;10.50;;
71253;SDS011;59019;47.638;18.966;2023-11-19T03:44:38;13.93;;;12.07;;
71253;SDS011;59019;47.638;18.966;2023-11-19T03:47:04;14.10;;;11.30;;
71253;SDS011;59019;47.638;18.966;2023-11-19T03:49:29;13.57;;;11.90;;
71253;SDS011;59019;47.638;18.966;2023-11-19T03:51:55;13.32;;;10.75;;
71253;SDS011;59019;47.638;18.966;2023-11-19T03:54:20;13.65;;;10.55;;
71253;SDS011;59019;47.638;18.966;2023-11-19T03:56:48;15.07;;;11.45;;
71253;SDS011;59019;47.638;18.966;2023-11-19T03:59:14;14.23;;;11.67;;
71253;SDS011;59019;47.638;18.966;2023-11-19T04:01:41;15.85;;;12.05;;
71253;SDS011;59019;47.638;18.966;2023-11-19T04:04:06;16.45;;;12.63;;
71253;SDS011;59019;47.638;18.966;2023-11-19T04:06:32;13.80;;;11.50;;
71253;SDS011;59019;47.638;18.966;2023-11-19T04:09:00;13.68;;;10.70;;
71253;SDS011;59019;47.638;18.966;2023-11-19T04:11:25;12.95;;;10.25;;
71253;SDS011;59019;47.638;18.966;2023-11-19T04:13:51;12.40;;;9.90;;
71253;SDS011;59019;47.638;18.966;2023-11-19T04:16:17;11.87;;;9.60;;
71253;SDS011;59019;47.638;18.966;2023-11-19T04:18:42;12.07;;;9.87;;
71253;SDS011;59019;47.638;18.966;2023-11-19T04:21:08;11.70;;;9.90;;
71253;SDS011;59019;47.638;18.966;2023-11-19T04:23:33;11.73;;;9.80;;
71253;SDS011;59019;47.638;18.966;2023-11-19T04:26:01;11.33;;;9.20;;
71253;SDS011;59019;47.638;18.966;2023-11-19T04:28:29;11.35;;;9.20;;
71253;SDS011;59019;47.638;18.966;2023-11-19T04:30:55;12.07;;;10.50;;
71253;SDS011;59019;47.638;18.966;2023-11-19T04:33:21;13.02;;;10.88;;
71253;SDS011;59019;47.638;18.966;2023-11-19T04:35:46;12.65;;;10.82;;
71253;SDS011;59019;47.638;18.966;2023-11-19T04:38:12;13.68;;;10.77;;
71253;SDS011;59019;47.638;18.966;2023-11-19T04:40:37;12.40;;;10.68;;
71253;SDS011;59019;47.638;18.966;2023-11-19T04:43:03;11.63;;;10.17;;
71253;SDS011;59019;47.638;18.966;2023-11-19T04:45:28;13.27;;;10.37;;
71253;SDS011;59019;47.638;18.966;2023-11-19T04:47:54;13.13;;;10.83;;
71253;SDS011;59019;47.638;18.966;2023-11-19T04:50:19;13.10;;;11.20;;
71253;SDS011;59019;47.638;18.966;2023-11-19T04:52:45;12.60;;;10.60;;
71253;SDS011;59019;47.638;18.966;2023-11-19T04:55:12;14.23;;;11.40;;
71253;SDS011;59019;47.638;18.966;2023-11-19T04:57:39;13.88;;;10.65;;
71253;SDS011;59019;47.638;18.966;2023-11-19T05:00:05;13.33;;;11.40;;
71253;SDS011;59019;47.638;18.966;2023-11-19T05:02:32;15.65;;;12.93;;
71253;SDS011;59019;47.638;18.966;2023-11-19T05:04:58;22.75;;;16.67;;
71253;SDS011;59019;47.638;18.966;2023-11-19T05:07:24;30.87;;;20.73;;
71253;SDS011;59019;47.638;18.966;2023-11-19T05:09:49;27.03;;;18.30;;
71253;SDS011;59019;47.638;18.966;2023-11-19T05:12:15;24.93;;;17.10;;
71253;SDS011;59019;47.638;18.966;2023-11-19T05:14:40;22.23;;;14.47;;
71253;SDS011;59019;47.638;18.966;2023-11-19T05:17:13;17.98;;;11.90;;
71253;SDS011;59019;47.638;18.966;2023-11-19T05:19:38;17.23;;;11.67;;
71253;SDS011;59019;47.638;18.966;2023-11-19T05:22:03;14.43;;;8.80;;
71253;SDS011;59019;47.638;18.966;2023-11-19T05:24:31;14.47;;;8.50;;
71253;SDS011;59019;47.638;18.966;2023-11-19T05:26:56;13.15;;;7.38;;
71253;SDS011;59019;47.638;18.966;2023-11-19T05:29:23;13.43;;;7.30;;
71253;SDS011;59019;47.638;18.966;2023-11-19T05:31:49;11.90;;;6.43;;
71253;SDS011;59019;47.638;18.966;2023-11-19T05:34:15;12.73;;;6.13;;
71253;SDS011;59019;47.638;18.966;2023-11-19T05:36:40;12.38;;;6.28;;
71253;SDS011;59019;47.638;18.966;2023-11-19T05:39:06;12.00;;;6.27;;
71253;SDS011;59019;47.638;18.966;2023-11-19T05:41:31;11.67;;;6.43;;
71253;SDS011;59019;47.638;18.966;2023-11-19T05:43:57;11.87;;;6.77;;
71253;SDS011;59019;47.638;18.966;2023-11-19T05:46:22;12.70;;;7.50;;
71253;SDS011;59019;47.638;18.966;2023-11-19T05:48:50;14.32;;;9.45;;
71253;SDS011;59019;47.638;18.966;2023-11-19T05:51:16;16.45;;;9.65;;
71253;SDS011;59019;47.638;18.966;2023-11-19T05:53:42;23.27;;;12.77;;
71253;SDS011;59019;47.638;18.966;2023-11-19T05:56:08;31.75;;;14.90;;
71253;SDS011;59019;47.638;18.966;2023-11-19T05:58:34;32.40;;;15.13;;
71253;SDS011;59019;47.638;18.966;2023-11-19T06:01:01;34.83;;;16.10;;
71253;SDS011;59019;47.638;18.966;2023-11-19T06:03:27;36.05;;;16.65;;
71253;SDS011;59019;47.638;18.966;2023-11-19T06:05:53;35.20;;;16.58;;
71253;SDS011;59019;47.638;18.966;2023-11-19T06:08:19;32.97;;;15.60;;
71253;SDS011;59019;47.638;18.966;2023-11-19T06:10:46;29.73;;;13.57;;
71253;SDS011;59019;47.638;18.966;2023-11-19T06:13:12;24.33;;;11.10;;
71253;SDS011;59019;47.638;18.966;2023-11-19T06:15:43;21.88;;;10.20;;
71253;SDS011;59019;47.638;18.966;2023-11-19T06:18:09;22.97;;;10.40;;
71253;SDS011;59019;47.638;18.966;2023-11-19T06:20:36;26.63;;;12.27;;
71253;SDS011;59019;47.638;18.966;2023-11-19T06:23:02;29.13;;;12.40;;
71253;SDS011;59019;47.638;18.966;2023-11-19T06:25:28;23.80;;;11.77;;
71253;SDS011;59019;47.638;18.966;2023-11-19T06:27:53;27.83;;;13.38;;
71253;SDS011;59019;47.638;18.966;2023-11-19T06:30:19;31.25;;;14.80;;
71253;SDS011;59019;47.638;18.966;2023-11-19T06:32:45;28.33;;;14.38;;
71253;SDS011;59019;47.638;18.966;2023-11-19T06:35:14;30.35;;;14.85;;
71253;SDS011;59019;47.638;18.966;2023-11-19T06:37:40;31.27;;;16.80;;
71253;SDS011;59019;47.638;18.966;2023-11-19T06:40:07;29.52;;;16.30;;
71253;SDS011;59019;47.638;18.966;2023-11-19T06:42:34;28.10;;;14.77;;
71253;SDS011;59019;47.638;18.966;2023-11-19T06:45:00;24.80;;;13.60;;
71253;SDS011;59019;47.638;18.966;2023-11-19T06:47:26;27.90;;;14.30;;
71253;SDS011;59019;47.638;18.966;2023-11-19T06:49:53;28.17;;;18.27;;
71253;SDS011;59019;47.638;18.966;2023-11-19T06:52:19;29.92;;;18.13;;
71253;SDS011;59019;47.638;18.966;2023-11-19T06:54:44;25.80;;;14.63;;
71253;SDS011;59019;47.638;18.966;2023-11-19T06:57:13;22.45;;;12.63;;
71253;SDS011;59019;47.638;18.966;2023-11-19T06:59:38;22.73;;;12.90;;
71253;SDS011;59019;47.638;18.966;2023-11-19T07:02:05;20.80;;;11.52;;
71253;SDS011;59019;47.638;18.966;2023-11-19T07:04:31;20.80;;;12.18;;
71253;SDS011;59019;47.638;18.966;2023-11-19T07:06:58;25.03;;;14.43;;
71253;SDS011;59019;47.638;18.966;2023-11-19T07:09:24;27.33;;;16.42;;
71253;SDS011;59019;47.638;18.966;2023-11-19T07:11:50;31.38;;;19.42;;
71253;SDS011;59019;47.638;18.966;2023-11-19T07:14:17;30.25;;;17.17;;
71253;SDS011;59019;47.638;18.966;2023-11-19T07:16:42;33.43;;;19.67;;
71253;SDS011;59019;47.638;18.966;2023-11-19T07:19:08;32.77;;;18.73;;
71253;SDS011;59019;47.638;18.966;2023-11-19T07:21:34;37.40;;;19.85;;
71253;SDS011;59019;47.638;18.966;2023-11-19T07:24:00;32.17;;;18.80;;
71253;SDS011;59019;47.638;18.966;2023-11-19T07:26:27;30.38;;;17.33;;
71253;SDS011;59019;47.638;18.966;2023-11-19T07:28:52;27.42;;;15.98;;
71253;SDS011;59019;47.638;18.966;2023-11-19T07:31:18;28.23;;;15.87;;
71253;SDS011;59019;47.638;18.966;2023-11-19T07:33:46;28.10;;;15.32;;
71253;SDS011;59019;47.638;18.966;2023-11-19T07:36:13;27.47;;;14.03;;
71253;SDS011;59019;47.638;18.966;2023-11-19T07:38:38;23.52;;;13.27;;
71253;SDS011;59019;47.638;18.966;2023-11-19T07:41:07;25.77;;;14.57;;
71253;SDS011;59019;47.638;18.966;2023-11-19T07:43:44;21.75;;;11.77;;
71253;SDS011;59019;47.638;18.966;2023-11-19T07:46:11;20.17;;;11.38;;
71253;SDS011;59019;47.638;18.966;2023-11-19T07:48:38;21.35;;;12.30;;
71253;SDS011;59019;47.638;18.966;2023-11-19T07:51:04;20.15;;;11.05;;
71253;SDS011;59019;47.638;18.966;2023-11-19T07:53:30;21.15;;;11.07;;
71253;SDS011;59019;47.638;18.966;2023-11-19T07:55:55;18.67;;;11.25;;
71253;SDS011;59019;47.638;18.966;2023-11-19T07:58:21;22.55;;;12.00;;
71253;SDS011;59019;47.638;18.966;2023-11-19T08:00:46;18.33;;;10.48;;
71253;SDS011;59019;47.638;18.966;2023-11-19T08:03:12;17.58;;;8.73;;
71253;SDS011;59019;47.638;18.966;2023-11-19T08:05:37;16.27;;;8.27;;
71253;SDS011;59019;47.638;18.966;2023-11-19T08:08:03;15.38;;;8.27;;
71253;SDS011;59019;47.638;18.966;2023-11-19T08:10:29;15.02;;;8.27;;
71253;SDS011;59019;47.638;18.966;2023-11-19T08:12:54;15.03;;;7.83;;
71253;SDS011;59019;47.638;18.966;2023-11-19T08:15:20;16.00;;;8.70;;
71253;SDS011;59019;47.638;18.966;2023-11-19T08:17:45;16.13;;;8.97;;
71253;SDS011;59019;47.638;18.966;2023-11-19T08:20:12;14.38;;;7.95;;
71253;SDS011;59019;47.638;18.966;2023-11-19T08:22:38;18.50;;;10.70;;
71253;SDS011;59019;47.638;18.966;2023-11-19T08:25:04;22.17;;;12.68;;
71253;SDS011;59019;47.638;18.966;2023-11-19T08:27:30;28.90;;;18.85;;
71253;SDS011;59019;47.638;18.966;2023-11-19T08:29:56;40.23;;;22.83;;
71253;SDS011;59019;47.638;18.966;2023-11-19T08:32:25;43.58;;;24.60;;
71253;SDS011;59019;47.638;18.966;2023-11-19T08:34:51;47.47;;;27.75;;
71253;SDS011;59019;47.638;18.966;2023-11-19T08:37:23;44.42;;;27.05;;
71253;SDS011;59019;47.638;18.966;2023-11-19T08:39:49;39.42;;;23.65;;
71253;SDS011;59019;47.638;18.966;2023-11-19T08:42:15;33.47;;;20.13;;
71253;SDS011;59019;47.638;18.966;2023-11-19T08:44:41;34.20;;;21.27;;
71253;SDS011;59019;47.638;18.966;2023-11-19T08:47:12;32.20;;;19.35;;
71253;SDS011;59019;47.638;18.966;2023-11-19T08:49:41;28.07;;;18.10;;
71253;SDS011;59019;47.638;18.966;2023-11-19T08:52:09;28.48;;;16.88;;
71253;SDS011;59019;47.638;18.966;2023-11-19T08:54:41;24.43;;;14.70;;
71253;SDS011;59019;47.638;18.966;2023-11-19T08:57:07;26.83;;;15.90;;
71253;SDS011;59019;47.638;18.966;2023-11-19T08:59:42;20.33;;;11.23;;
71253;SDS011;59019;47.638;18.966;2023-11-19T09:02:13;22.65;;;13.05;;
71253;SDS011;59019;47.638;18.966;2023-11-19T09:04:38;19.25;;;10.63;;
71253;SDS011;59019;47.638;18.966;2023-11-19T09:07:04;23.27;;;11.85;;
71253;SDS011;59019;47.638;18.966;2023-11-19T09:09:30;22.13;;;11.80;;
71253;SDS011;59019;47.638;18.966;2023-11-19T09:11:55;23.33;;;12.03;;
71253;SDS011;59019;47.638;18.966;2023-11-19T09:14:21;23.17;;;12.27;;
71253;SDS011;59019;47.638;18.966;2023-11-19T09:16:57;27.47;;;13.63;;
71253;SDS011;59019;47.638;18.966;2023-11-19T09:19:23;27.17;;;15.23;;
71253;SDS011;59019;47.638;18.966;2023-11-19T09:21:49;28.92;;;15.07;;
71253;SDS011;59019;47.638;18.966;2023-11-19T09:24:20;25.40;;;13.50;;
71253;SDS011;59019;47.638;18.966;2023-11-19T09:26:45;26.97;;;13.10;;
71253;SDS011;59019;47.638;18.966;2023-11-19T09:29:11;24.70;;;12.88;;
71253;SDS011;59019;47.638;18.966;2023-11-19T09:31:45;22.67;;;13.10;;
71253;SDS011;59019;47.638;18.966;2023-11-19T09:34:16;24.90;;;13.73;;
71253;SDS011;59019;47.638;18.966;2023-11-19T09:36:51;22.63;;;12.90;;
71253;SDS011;59019;47.638;18.966;2023-11-19T09:39:16;21.50;;;11.98;;
71253;SDS011;59019;47.638;18.966;2023-11-19T09:41:46;21.42;;;12.05;;
71253;SDS011;59019;47.638;18.966;2023-11-19T09:44:20;20.40;;;12.63;;
71253;SDS011;59019;47.638;18.966;2023-11-19T09:46:47;26.97;;;15.37;;
71253;SDS011;59019;47.638;18.966;2023-11-19T09:49:14;41.88;;;22.73;;
71253;SDS011;59019;47.638;18.966;2023-11-19T09:51:42;119.10;;;55.63;;
71253;SDS011;59019;47.638;18.966;2023-11-19T09:54:11;38.97;;;20.98;;
71253;SDS011;59019;47.638;18.966;2023-11-19T09:56:44;44.40;;;25.33;;
71253;SDS011;59019;47.638;18.966;2023-11-19T09:59:10;32.27;;;18.73;;
71253;SDS011;59019;47.638;18.966;2023-11-19T10:01:37;30.95;;;17.45;;
71253;SDS011;59019;47.638;18.966;2023-11-19T10:04:03;30.88;;;17.35;;
71253;SDS011;59019;47.638;18.966;2023-11-19T10:06:31;28.80;;;16.95;;
71253;SDS011;59019;47.638;18.966;2023-11-19T10:09:00;52.60;;;30.83;;
71253;SDS011;59019;47.638;18.966;2023-11-19T10:11:26;40.40;;;23.35;;
71253;SDS011;59019;47.638;18.966;2023-11-19T10:13:54;37.75;;;21.88;;
71253;SDS011;59019;47.638;18.966;2023-11-19T10:16:20;37.97;;;21.17;;
71253;SDS011;59019;47.638;18.966;2023-11-19T10:18:56;61.67;;;39.37;;
71253;SDS011;59019;47.638;18.966;2023-11-19T10:21:24;47.53;;;28.70;;
71253;SDS011;59019;47.638;18.966;2023-11-19T10:23:54;36.90;;;23.33;;
71253;SDS011;59019;47.638;18.966;2023-11-19T10:26:22;39.63;;;27.05;;
71253;SDS011;59019;47.638;18.966;2023-11-19T10:28:48;42.13;;;29.87;;
71253;SDS011;59019;47.638;18.966;2023-11-19T10:31:19;29.17;;;17.73;;
71253;SDS011;59019;47.638;18.966;2023-11-19T10:33:50;28.80;;;19.02;;
71253;SDS011;59019;47.638;18.966;2023-11-19T10:36:16;39.78;;;24.25;;
71253;SDS011;59019;47.638;18.966;2023-11-19T10:38:51;54.67;;;32.20;;
71253;SDS011;59019;47.638;18.966;2023-11-19T10:41:29;32.80;;;21.15;;
71253;SDS011;59019;47.638;18.966;2023-11-19T10:43:57;31.42;;;20.52;;
71253;SDS011;59019;47.638;18.966;2023-11-19T10:46:23;29.50;;;18.52;;
71253;SDS011;59019;47.638;18.966;2023-11-19T10:49:11;35.22;;;20.35;;
71253;SDS011;59019;47.638;18.966;2023-11-19T10:51:46;19.20;;;12.52;;
71253;SDS011;59019;47.638;18.966;2023-11-19T10:54:12;59.80;;;40.50;;
71253;SDS011;59019;47.638;18.966;2023-11-19T10:56:43;21.27;;;13.77;;
71253;SDS011;59019;47.638;18.966;2023-11-19T10:59:14;23.17;;;14.73;;
71253;SDS011;59019;47.638;18.966;2023-11-19T11:01:52;19.08;;;11.60;;
71253;SDS011;59019;47.638;18.966;2023-11-19T11:04:21;23.43;;;15.97;;
71253;SDS011;59019;47.638;18.966;2023-11-19T11:07:01;21.60;;;13.13;;
71253;SDS011;59019;47.638;18.966;2023-11-19T11:09:33;22.15;;;13.63;;
71253;SDS011;59019;47.638;18.966;2023-11-19T11:12:01;26.33;;;16.35;;
71253;SDS011;59019;47.638;18.966;2023-11-19T11:14:35;38.13;;;18.45;;
71253;SDS011;59019;47.638;18.966;2023-11-19T11:17:12;35.25;;;19.90;;
71253;SDS011;59019;47.638;18.966;2023-11-19T11:19:42;30.05;;;18.52;;
71253;SDS011;59019;47.638;18.966;2023-11-19T11:22:08;27.88;;;17.85;;
71253;SDS011;59019;47.638;18.966;2023-11-19T11:25:25;28.83;;;18.23;;
71253;SDS011;59019;47.638;18.966;2023-11-19T11:31:12;27.35;;;16.52;;
71253;SDS011;59019;47.638;18.966;2023-11-19T11:33:54;27.43;;;17.50;;
71253;SDS011;59019;47.638;18.966;2023-11-19T11:36:29;24.13;;;14.77;;
71253;SDS011;59019;47.638;18.966;2023-11-19T11:39:08;36.85;;;16.60;;
71253;SDS011;59019;47.638;18.966;2023-11-19T11:41:34;28.42;;;14.95;;
71253;SDS011;59019;47.638;18.966;2023-11-19T11:44:00;27.37;;;15.37;;
71253;SDS011;59019;47.638;18.966;2023-11-19T11:49:07;26.15;;;15.40;;
71253;SDS011;59019;47.638;18.966;2023-11-19T11:54:10;25.27;;;15.60;;
71253;SDS011;59019;47.638;18.966;2023-11-19T11:57:03;26.20;;;14.87;;
71253;SDS011;59019;47.638;18.966;2023-11-19T12:02:20;31.10;;;15.48;;
71253;SDS011;59019;47.638;18.966;2023-11-19T12:04:50;22.58;;;13.93;;
71253;SDS011;59019;47.638;18.966;2023-11-19T12:07:26;21.55;;;13.13;;
71253;SDS011;59019;47.638;18.966;2023-11-19T12:10:07;24.40;;;14.23;;
71253;SDS011;59019;47.638;18.966;2023-11-19T12:12:34;23.17;;;14.88;;
71253;SDS011;59019;47.638;18.966;2023-11-19T12:17:37;20.83;;;13.43;;
71253;SDS011;59019;47.638;18.966;2023-11-19T12:20:15;22.85;;;12.13;;
71253;SDS011;59019;47.638;18.966;2023-11-19T12:22:43;20.98;;;13.18;;
71253;SDS011;59019;47.638;18.966;2023-11-19T12:25:16;31.35;;;18.55;;
71253;SDS011;59019;47.638;18.966;2023-11-19T12:27:46;16.93;;;11.13;;
71253;SDS011;59019;47.638;18.966;2023-11-19T12:30:25;15.67;;;9.70;;
71253;SDS011;59019;47.638;18.966;2023-11-19T12:32:56;10.77;;;6.70;;
71253;SDS011;59019;47.638;18.966;2023-11-19T12:35:25;11.85;;;6.90;;
71253;SDS011;59019;47.638;18.966;2023-11-19T12:37:52;19.40;;;12.47;;
71253;SDS011;59019;47.638;18.966;2023-11-19T12:40:29;16.50;;;10.85;;
71253;SDS011;59019;47.638;18.966;2023-11-19T12:42:55;19.97;;;12.20;;
71253;SDS011;59019;47.638;18.966;2023-11-19T12:45:23;19.67;;;12.52;;
71253;SDS011;59019;47.638;18.966;2023-11-19T12:47:49;35.93;;;19.17;;
71253;SDS011;59019;47.638;18.966;2023-11-19T12:50:20;28.90;;;17.48;;
71253;SDS011;59019;47.638;18.966;2023-11-19T12:52:55;14.02;;;8.57;;
71253;SDS011;59019;47.638;18.966;2023-11-19T12:55:25;20.42;;;12.90;;
71253;SDS011;59019;47.638;18.966;2023-11-19T12:57:57;17.75;;;10.80;;
71253;SDS011;59019;47.638;18.966;2023-11-19T13:00:25;20.98;;;12.20;;
71253;SDS011;59019;47.638;18.966;2023-11-19T13:02:52;17.63;;;10.77;;
71253;SDS011;59019;47.638;18.966;2023-11-19T13:05:34;20.77;;;12.38;;
71253;SDS011;59019;47.638;18.966;2023-11-19T13:08:10;32.45;;;19.75;;
71253;SDS011;59019;47.638;18.966;2023-11-19T13:13:16;34.40;;;21.00;;
71253;SDS011;59019;47.638;18.966;2023-11-19T13:15:44;29.23;;;17.40;;
71253;SDS011;59019;47.638;18.966;2023-11-19T13:18:13;17.73;;;11.48;;
71253;SDS011;59019;47.638;18.966;2023-11-19T13:20:41;15.35;;;9.40;;
71253;SDS011;59019;47.638;18.966;2023-11-19T13:23:09;14.02;;;8.65;;
71253;SDS011;59019;47.638;18.966;2023-11-19T13:25:40;28.52;;;16.17;;
71253;SDS011;59019;47.638;18.966;2023-11-19T13:28:05;17.45;;;11.38;;
71253;SDS011;59019;47.638;18.966;2023-11-19T13:30:31;20.50;;;13.20;;
71253;SDS011;59019;47.638;18.966;2023-11-19T13:32:56;17.75;;;11.40;;
71253;SDS011;59019;47.638;18.966;2023-11-19T13:35:22;14.93;;;9.10;;
71253;SDS011;59019;47.638;18.966;2023-11-19T13:37:48;14.53;;;9.07;;
71253;SDS011;59019;47.638;18.966;2023-11-19T13:40:13;18.10;;;11.97;;
71253;SDS011;59019;47.638;18.966;2023-11-19T13:42:43;20.67;;;13.23;;
71253;SDS011;59019;47.638;18.966;2023-11-19T13:45:12;17.38;;;10.85;;
71253;SDS011;59019;47.638;18.966;2023-11-19T13:47:45;24.05;;;15.23;;
71253;SDS011;59019;47.638;18.966;2023-11-19T13:50:14;26.33;;;16.67;;
71253;SDS011;59019;47.638;18.966;2023-11-19T13:52:42;18.15;;;11.52;;
71253;SDS011;59019;47.638;18.966;2023-11-19T13:55:10;17.60;;;11.35;;
71253;SDS011;59019;47.638;18.966;2023-11-19T14:07:07;17.23;;;11.27;;
71253;SDS011;59019;47.638;18.966;2023-11-19T14:09:33;15.30;;;9.77;;
71253;SDS011;59019;47.638;18.966;2023-11-19T14:11:58;15.30;;;10.05;;
71253;SDS011;59019;47.638;18.966;2023-11-19T14:14:24;16.80;;;10.52;;
71253;SDS011;59019;47.638;18.966;2023-11-19T14:16:58;18.08;;;11.50;;
71253;SDS011;59019;47.638;18.966;2023-11-19T14:19:24;24.83;;;15.37;;
71253;SDS011;59019;47.638;18.966;2023-11-19T14:21:50;18.25;;;12.18;;
71253;SDS011;59019;47.638;18.966;2023-11-19T14:24:15;20.20;;;12.20;;
71253;SDS011;59019;47.638;18.966;2023-11-19T14:26:40;40.70;;;22.17;;
71253;SDS011;59019;47.638;18.966;2023-11-19T14:29:06;21.53;;;12.50;;
71253;SDS011;59019;47.638;18.966;2023-11-19T14:31:32;29.87;;;16.50;;
71253;SDS011;59019;47.638;18.966;2023-11-19T14:33:57;33.27;;;16.87;;
71253;SDS011;59019;47.638;18.966;2023-11-19T14:36:29;30.67;;;19.03;;
71253;SDS011;59019;47.638;18.966;2023-11-19T14:38:54;26.17;;;17.87;;
71253;SDS011;59019;47.638;18.966;2023-11-19T14:41:20;21.55;;;13.93;;
71253;SDS011;59019;47.638;18.966;2023-11-19T14:43:45;21.77;;;14.40;;
71253;SDS011;59019;47.638;18.966;2023-11-19T14:46:12;23.70;;;14.30;;
71253;SDS011;59019;47.638;18.966;2023-11-19T14:48:37;22.70;;;13.00;;
71253;SDS011;59019;47.638;18.966;2023-11-19T14:51:02;43.77;;;18.50;;
71253;SDS011;59019;47.638;18.966;2023-11-19T14:53:28;32.42;;;15.60;;